Flight Track Log - Related Links

Times and Time Zones

All times are in EST time to prevent confusion due to time zone crossing. See the AAY654 flight status page for this flight to view local times or setup timezone preferences in your user account.

Time Position Orientation Groundspeed Altitude Reporting Facility
EST Latitude Longitude Course Direction KTS MPH feet Rate Location/Type
Mon 04:28:36 PM 28.7902 -81.1900 71° East 186 214 1,700  Level FlightAware ADS-B
Mon 04:28:47 PM 28.7956 -81.1810 55° Northeast 195 224 2,000 1,333 Climbing FlightAware ADS-B
Mon 04:28:54 PM 28.8016 -81.1760 36° Northeast 217 250 2,100 1,286 Climbing FlightAware ADS-B
Mon 04:29:15 PM 28.8232 -81.1735 North 243 280 2,600 1,778 Climbing FlightAware ADS-B
Mon 04:29:21 PM 28.8298 -81.1762 340° North 244 281 2,900 3,500 Climbing FlightAware ADS-B
Mon 04:29:27 PM 28.8353 -81.1801 328° Northwest 247 284 3,300 2,077 Climbing FlightAware ADS-B
Mon 04:29:47 PM 28.8497 -81.2016 307° West 260 299 3,800 2,318 Climbing FlightAware ADS-B
Mon 04:30:11 PM 28.8629 -81.2327 296° West 274 315 5,000 3,529 Climbing FlightAware ADS-B
Mon 04:30:21 PM 28.8497 -81.2016 116° Southeast 276 318 5,800 4,400 Climbing FlightAware ADS-B
Mon 04:30:41 PM 28.8790 -81.2704 296° West 255 293 7,200 3,600 Climbing FlightAware ADS-B
Mon 04:31:01 PM 28.8917 -81.2940 302° West 262 302 8,200 2,903 Climbing FlightAware ADS-B
Mon 04:31:12 PM 28.9011 -81.3035 318° Northwest 270 311 8,700 2,600 Climbing FlightAware ADS-B
Mon 04:31:31 PM 28.9223 -81.3191 327° Northwest 283 326 9,500 2,400 Climbing FlightAware ADS-B
Mon 04:32:02 PM 28.9547 -81.3419 328° Northwest 298 343 10,700 1,099 Climbing FlightAware ADS-B
Mon 04:32:42 PM 29.0097 -81.3781 330° Northwest 345 397 10,800 429 Climbing FlightAware ADS-B
Mon 04:33:12 PM 29.0574 -81.3865 351° North 353 406 11,200 1,900 Climbing FlightAware ADS-B
Mon 04:33:42 PM 29.1064 -81.3900 356° North 352 405 12,700 3,120 Climbing FlightAware ADS-B
Mon 04:34:02 PM 29.1373 -81.4005 344° North 343 395 13,800 3,051 Climbing FlightAware ADS-B
Mon 04:34:41 PM 29.1939 -81.4279 337° Northwest 343 395 15,700 2,609 Climbing FlightAware ADS-B
Mon 04:35:11 PM 29.2382 -81.4500 336° Northwest 350 403 16,800 1,900 Climbing FlightAware ADS-B
Mon 04:35:41 PM 29.2836 -81.4724 337° Northwest 362 417 17,600 1,770 Climbing FlightAware ADS-B
Mon 04:36:12 PM 29.3329 -81.4951 338° Northwest 373 429 18,600 1,859 Climbing FlightAware ADS-B
Mon 04:36:52 PM 29.3980 -81.5247 338° Northwest 383 441 19,800 1,886 Climbing FlightAware ADS-B
Mon 04:37:22 PM 29.4489 -81.5478 338° Northwest 386 444 20,800 1,967 Climbing FlightAware ADS-B
Mon 04:37:53 PM 29.5002 -81.5702 339° North 390 449 21,800 1,967 Climbing FlightAware ADS-B
Mon 04:38:23 PM 29.5512 -81.5923 339° North 393 452 22,800 1,869 Climbing FlightAware ADS-B
Mon 04:38:54 PM 29.6044 -81.6134 341° North 402 463 23,700 1,667 Climbing FlightAware ADS-B
Mon 04:39:35 PM 29.6840 -81.6216 355° North 420 483 24,800 1,579 Climbing FlightAware ADS-B
Mon 04:40:10 PM 29.7476 -81.6268 356° North 421 484 25,700 1,565 Climbing FlightAware ADS-B
Mon 04:40:44 PM 29.8169 -81.6326 356° North 420 483 26,600 1,185 Climbing FlightAware ADS-B
Mon 04:41:31 PM 29.9113 -81.6407 356° North 436 502 27,300 811 Climbing FlightAware ADS-B
Mon 04:42:35 PM 30.0225 -81.6500 356° North 425 489 28,100 919 Climbing Jacksonville Center
Mon 04:43:35 PM 30.1478 -81.6603 356° North 444 511 29,200 1,050 Climbing Jacksonville Center
Mon 04:44:35 PM 30.2775 -81.6706 356° North 451 519 30,200 1,050 Climbing Jacksonville Center
Mon 04:45:35 PM 30.4111 -81.6833 355° North 462 532 31,300 1,250 Climbing Jacksonville Center
Mon 04:46:35 PM 30.5406 -81.6939 356° North 467 537 32,700 850 Climbing Jacksonville Center
Mon 04:47:35 PM 30.6722 -81.7067 355° North 467 537 33,000 150 Climbing Jacksonville Center
Mon 04:48:35 PM 30.7997 -81.7172 356° North 462 532 33,000  Level Jacksonville Center
Mon 04:49:35 PM 30.9294 -81.7278 356° North 462 532 33,000  Level Jacksonville Center
Mon 04:50:35 PM 31.0589 -81.7406 355° North 462 532 33,000  Level Jacksonville Center
Mon 04:51:35 PM 31.1864 -81.7511 356° North 462 532 33,000 450 Level Jacksonville Center
Mon 04:52:35 PM 31.3078 -81.7789 349° North 462 532 33,900 500 Climbing Jacksonville Center
Mon 04:53:35 PM 31.4417 -81.8164 347° North 449 517 34,000 50 Climbing Jacksonville Center
Mon 04:54:35 PM 31.5525 -81.8492 346° North 449 517 34,000 350 Level Jacksonville Center
Mon 04:55:35 PM 31.6761 -81.8844 346° North 456 525 34,700 500 Climbing Jacksonville Center
Mon 04:56:35 PM 31.8100 -81.9219 347° North 451 519 35,000 536 Climbing Jacksonville Center
Mon 04:58:23 PM 32.0361 -81.9758 349° North 479 551 36,200 714 Climbing Atlanta Center
Mon 04:59:23 PM 32.1617 -81.9903 354° North 472 543 37,000 400 Climbing Atlanta Center
Mon 05:00:23 PM 32.2722 -81.9975 357° North 453 521 37,000  Level Atlanta Center
Mon 05:01:23 PM 32.3978 -82.0142 354° North 446 513 37,000  Level Atlanta Center
Mon 05:02:23 PM 32.5192 -82.0264 355° North 441 507 37,000  Level Atlanta Center
Mon 05:03:23 PM 32.6425 -82.0383 355° North 441 507 37,000  Level Atlanta Center
Mon 05:04:23 PM 32.7675 -82.0331 North 441 507 37,000  Level Atlanta Center
Mon 05:05:23 PM 32.8886 -82.0278 North 441 507 37,000  Level Atlanta Center
Mon 05:06:23 PM 33.0158 -82.0222 North 441 507 37,000  Level Atlanta Center
Mon 05:07:23 PM 33.1411 -82.0169 North 441 507 37,000  Level Atlanta Center
Mon 05:08:23 PM 33.2661 -82.0114 North 441 507 37,000  Level Atlanta Center
Mon 05:09:23 PM 33.3869 -82.0036 North 441 507 37,000  Level Atlanta Center
Mon 05:10:23 PM 33.5247 -82.0006 North 441 507 37,000  Level Atlanta Center
Mon 05:11:23 PM 33.6500 -81.9925 North 441 507 37,000  Level Atlanta Center
Mon 05:12:23 PM 33.7750 -81.9869 North 441 507 37,000  Level Atlanta Center
Mon 05:13:23 PM 33.9003 -81.9814 North 441 507 37,000  Level Atlanta Center
Mon 05:14:23 PM 34.0231 -81.9761 North 441 507 37,000  Level Atlanta Center
Mon 05:15:23 PM 34.1506 -81.9731 North 441 507 37,000  Level Atlanta Center
Mon 05:16:23 PM 34.2736 -81.9675 North 441 507 37,000  Level Atlanta Center
Mon 05:17:23 PM 34.3986 -81.9619 North 441 507 37,000  Level Atlanta Center
Mon 05:18:23 PM 34.5217 -81.9564 North 441 507 37,000  Level Atlanta Center
Mon 05:19:23 PM 34.6364 -81.9508 North 441 507 37,000  Level Atlanta Center
Mon 05:20:23 PM 34.7594 -81.9453 North 441 507 37,000  Level Atlanta Center
Mon 05:21:23 PM 34.8928 -81.9394 North 436 502 37,000  Level Atlanta Center
Mon 05:22:23 PM 35.0242 -81.9336 North 443 510 37,000  Level Atlanta Center
Mon 05:23:23 PM 35.1472 -81.9306 North 443 510 37,000  Level Atlanta Center
Mon 05:24:23 PM 35.2722 -81.9247 North 443 510 37,000  Level Atlanta Center
Mon 05:25:23 PM 35.3994 -81.9164 North 443 510 37,000  Level Atlanta Center
Mon 05:26:23 PM 35.5244 -81.9106 North 443 510 37,000  Level Atlanta Center
Mon 05:27:23 PM 35.6497 -81.9047 North 443 510 37,000  Level Atlanta Center
Mon 05:29:05 PM 35.8564 -81.8911 North 446 513 37,000  Level Indianapolis Center
Mon 05:30:23 PM 36.0247 -81.8872 North 443 510 37,000  Level Atlanta Center
Mon 05:31:23 PM 36.1247 -81.8819 North 443 510 37,000  Level Atlanta Center
Mon 05:32:23 PM 36.2603 -81.8758 North 443 510 37,000  Level Atlanta Center
Mon 05:33:23 PM 36.3875 -81.8697 North 443 510 37,000  Level Atlanta Center
Mon 05:35:17 PM 36.6300 -81.8550 North 450 518 37,000  Level Indianapolis Center
Mon 05:36:18 PM 36.7561 -81.8483 North 450 518 37,000  Level Indianapolis Center
Mon 05:37:20 PM 36.8839 -81.8417 North 454 522 37,000  Level Indianapolis Center
Mon 05:38:21 PM 37.0097 -81.8356 North 454 522 37,000  Level Indianapolis Center
Mon 05:39:23 PM 37.1558 -81.8286 North 454 522 37,000  Level Indianapolis Center
Mon 05:40:25 PM 37.2831 -81.8219 North 454 522 37,000  Level Indianapolis Center
Mon 05:41:27 PM 37.4097 -81.8164 North 454 522 37,000  Level Indianapolis Center
Mon 05:42:29 PM 37.5375 -81.8097 North 455 524 37,000  Level Indianapolis Center
Mon 05:43:31 PM 37.6647 -81.8031 North 457 526 37,000  Level Indianapolis Center
Mon 05:44:32 PM 37.7933 -81.7983 North 457 526 37,000  Level Indianapolis Center
Mon 05:45:34 PM 37.9275 -81.7917 North 458 527 37,000  Level Indianapolis Center
Mon 05:46:36 PM 38.0539 -81.7853 North 457 526 37,000  Level Indianapolis Center
Mon 05:47:38 PM 38.1786 -81.7792 North 451 519 37,000  Level Indianapolis Center
Mon 05:48:40 PM 38.3028 -81.7683 North 449 517 37,000  Level Indianapolis Center
Mon 05:49:41 PM 38.4539 -81.7139 16° North 466 536 37,000  Level Indianapolis Center
Mon 05:50:43 PM 38.5786 -81.6433 24° Northeast 482 555 37,000  Level Indianapolis Center
Mon 05:51:45 PM 38.7103 -81.5706 23° Northeast 483 556 37,000  Level Indianapolis Center
Mon 05:52:48 PM 38.8347 -81.4994 24° Northeast 484 557 37,000  Level Indianapolis Center
Mon 05:53:49 PM 38.9658 -81.4386 20° North 490 564 37,000  Level Indianapolis Center
Mon 05:54:51 PM 39.0925 -81.4114 North 465 535 37,000  Level Indianapolis Center
Mon 06:00:14 PM 39.7828 -81.2673 North 460 529 37,000 -35 Level FlightAware ADS-B
Mon 06:00:30 PM 39.8229 -81.2563 12° North 488 562 36,800 -500 Descending FlightAware ADS-B
Mon 06:01:02 PM 39.8825 -81.2194 12° North 475 547 36,600 -702 Descending Indianapolis Center
Mon 06:02:04 PM 39.9931 -81.1442 28° Northeast 478 550 35,700 -871 Descending Indianapolis Center
Mon 06:03:06 PM 40.1119 -81.0672 26° Northeast 477 549 34,800 -919 Descending Indianapolis Center
Mon 06:04:08 PM 40.2311 -80.9856 28° Northeast 477 549 33,800 -750 Descending Indianapolis Center
Mon 06:05:38 PM 40.4169 -80.8594 27° Northeast 473 544 32,900 -750 Descending Cleveland Center
Mon 06:06:40 PM 40.5344 -80.7800 27° Northeast 473 544 31,900 -919 Descending Cleveland Center
Mon 06:07:42 PM 40.6617 -80.6936 27° Northeast 471 542 31,000 -435 Descending Cleveland Center
Mon 06:08:44 PM 40.7750 -80.6164 27° Northeast 461 531 31,000  Level Cleveland Center
Mon 06:09:46 PM 40.8789 -80.5447 28° Northeast 459 528 31,000 -387 Level Cleveland Center
Mon 06:10:48 PM 41.0161 -80.4494 28° Northeast 461 531 30,200 -823 Descending Cleveland Center
Mon 06:11:50 PM 41.1278 -80.3722 28° Northeast 455 524 29,300 -919 Descending Cleveland Center
Mon 06:12:52 PM 41.2369 -80.2964 28° Northeast 445 512 28,300 -930 Descending Cleveland Center
Mon 06:18:56 PM 41.8667 -79.8520 28° Northeast 412 474 22,700 -914 Descending FlightAware ADS-B (CYYZ)
Mon 06:19:26 PM 41.9313 -79.8059 28° Northeast 411 473 22,300 -900 Descending FlightAware ADS-B (CYYZ)
Mon 06:19:56 PM 41.9812 -79.7702 28° Northeast 409 471 21,800 -984 Descending FlightAware ADS-B (CYYZ)
Mon 06:20:27 PM 42.0309 -79.7345 28° Northeast 408 470 21,300 -1,000 Descending FlightAware ADS-B (CYYZ)
Mon 06:20:56 PM 42.0799 -79.6992 28° Northeast 405 466 20,800 -1,000 Descending FlightAware ADS-B (CYYZ)
Mon 06:21:27 PM 42.1309 -79.6625 28° Northeast 396 456 20,300 -1,377 Descending FlightAware ADS-B (CYYZ)
Mon 06:21:57 PM 42.1783 -79.6282 28° Northeast 387 445 19,400 -1,957 Descending FlightAware ADS-B (CYYZ)
Mon 06:22:13 PM 42.2031 -79.6102 28° Northeast 385 443 18,800 -2,276 Descending FlightAware ADS-B (EPLB / LUZ)
Mon 06:22:26 PM 42.2250 -79.5945 28° Northeast 387 445 18,300 -2,195 Descending FlightAware ADS-B (CYYZ)
Mon 06:22:54 PM 42.2682 -79.5634 28° Northeast 385 443 17,300 -2,000 Descending FlightAware ADS-B (EPLB / LUZ)
Mon 06:22:56 PM 42.2724 -79.5603 28° Northeast 384 442 17,300 -1,688 Level FlightAware ADS-B (CYYZ)
Mon 06:23:26 PM 42.3187 -79.5267 28° Northeast 376 433 16,400 -1,950 Descending FlightAware ADS-B (CYYZ)
Mon 06:23:36 PM 42.3334 -79.5160 28° Northeast 376 433 16,000 -1,800 Descending FlightAware ADS-B (EPLB / LUZ)
Mon 06:23:56 PM 42.3630 -79.4946 28° Northeast 370 426 15,500 -1,688 Descending FlightAware ADS-B (CYYZ)
Mon 06:24:08 PM 42.3813 -79.4812 28° Northeast 366 421 15,100 -1,400 Descending FlightAware ADS-B (EPLB / LUZ)
Mon 06:24:26 PM 42.4083 -79.4615 28° Northeast 361 415 14,800 -1,500 Descending FlightAware ADS-B (CYYZ)
Mon 06:24:56 PM 42.4530 -79.4288 28° Northeast 355 409 13,900 -2,000 Descending FlightAware ADS-B (CYYZ)
Mon 06:25:26 PM 42.4945 -79.3986 28° Northeast 359 413 12,800 -1,900 Descending FlightAware ADS-B (CYYZ)
Mon 06:25:56 PM 42.5395 -79.3658 28° Northeast 349 402 12,000 -1,600 Descending FlightAware ADS-B (CYYZ)
Mon 06:26:26 PM 42.5804 -79.3360 28° Northeast 343 395 11,200 -1,592 Descending FlightAware ADS-B (CYYZ)
Mon 06:26:45 PM 42.6081 -79.3157 28° Northeast 373 429 10,700 -1,600 Descending FlightAware ADS-B (EPLB / LUZ)
Mon 06:26:56 PM 42.6228 -79.3048 28° Northeast 333 383 10,400 -1,024 Descending FlightAware ADS-B (CYYZ)
Mon 06:27:26 PM 42.6625 -79.2755 28° Northeast 313 360 10,000 -783 Descending FlightAware ADS-B (CYYZ)
Mon 06:27:42 PM 42.6780 -79.2640 29° Northeast 303 349 9,800 -1,400 Descending FlightAware ADS-B (CYYZ)
Mon 06:27:56 PM 42.6997 -79.2478 29° Northeast 302 348 9,300 -1,862 Descending FlightAware ADS-B (CYYZ)
Mon 06:28:11 PM 42.7180 -79.2342 29° Northeast 301 346 8,900 -1,600 Descending FlightAware ADS-B (CYYZ)
Mon 06:28:26 PM 42.7362 -79.2212 28° Northeast 298 343 8,500 -1,548 Descending FlightAware ADS-B (CYYZ)
Mon 06:28:42 PM 42.7534 -79.2090 27° Northeast 297 342 8,100 -1,500 Descending FlightAware ADS-B (CYYZ)
Mon 06:28:54 PM 42.7547 -79.2081 27° Northeast 297 342 7,800 -1,714 Descending FlightAware ADS-B (EPLB / LUZ)
Mon 06:28:56 PM 42.7728 -79.1954 27° Northeast 298 343 7,700 -1,667 Descending FlightAware ADS-B (CYYZ)
Mon 06:29:12 PM 42.7918 -79.1828 26° Northeast 296 341 7,300 -1,600 Descending FlightAware ADS-B (CYYZ)
Mon 06:29:26 PM 42.8083 -79.1716 26° Northeast 292 336 6,900 -1,600 Descending FlightAware ADS-B (CYYZ)
Mon 06:29:42 PM 42.8276 -79.1585 27° Northeast 289 333 6,500 -1,400 Descending FlightAware ADS-B (CYYZ)
Mon 06:29:56 PM 42.8427 -79.1482 27° Northeast 289 333 6,200 -882 Descending FlightAware ADS-B (CYYZ)
Mon 06:30:16 PM 42.8692 -79.1307 26° Northeast 274 315 6,000 -667 Descending FlightAware ADS-B (CYYZ)
Mon 06:30:32 PM 42.8860 -79.1199 25° Northeast 265 305 5,800 -800 Descending FlightAware ADS-B (CYYZ)
Mon 06:30:46 PM 42.9021 -79.1099 24° Northeast 256 295 5,600 -769 Descending FlightAware ADS-B (CYYZ)
Mon 06:31:11 PM 42.9273 -79.0914 28° Northeast 238 274 5,300 -750 Descending FlightAware ADS-B (CYYZ)
Mon 06:31:26 PM 42.9408 -79.0789 34° Northeast 233 268 5,100 -1,200 Descending FlightAware ADS-B (CYYZ)
Mon 06:31:41 PM 42.9539 -79.0668 34° Northeast 233 268 4,700 -1,400 Descending FlightAware ADS-B (CYYZ)
Mon 06:31:56 PM 42.9667 -79.0550 34° Northeast 231 266 4,400 -774 Descending FlightAware ADS-B (CYYZ)
Mon 06:32:12 PM 42.9789 -79.0445 32° Northeast 219 252 4,300 -600 Descending FlightAware ADS-B (CYYZ)
Mon 06:32:26 PM 42.9925 -79.0328 32° Northeast 202 232 4,100 -512 Descending FlightAware ADS-B (CYYZ)
Mon 06:36:30 PM 43.1496 -79.0283 North 175 201 2,100 -500 Descending FlightAware ADS-B (EPLB / LUZ)
Mon 06:36:50 PM 43.1364 -79.0376 207° Southwest 156 180 1,900 -333 Descending FlightAware ADS-B (CYYZ)
Mon 06:37:42 PM 43.1089 -79.0183 207° Southwest 144 166 1,700 -316 Descending Cleveland Center
Mon 06:38:44 PM 43.1064 -78.9764 95° East 131 151 1,300 -387 Descending Cleveland Center

Login

Don't have an account? Register now (free) for customized features, flight alerts, and more!